createdAt,value
2023-09-07T00:01:21.720Z,98242.78
2023-09-07T00:03:49.102Z,98247.19
2023-09-07T00:06:16.348Z,98240.44
2023-09-07T00:08:44.822Z,98247.09
2023-09-07T00:11:11.944Z,98248.44
2023-09-07T00:13:39.316Z,98245.13
2023-09-07T00:16:07.527Z,98257.16
2023-09-07T00:18:35.147Z,98248.28
2023-09-07T00:21:02.441Z,98248.31
2023-09-07T00:23:30.937Z,98250.78
2023-09-07T00:25:58.108Z,98244.44
2023-09-07T00:28:25.324Z,98241.78
2023-09-07T00:30:53.575Z,98239.75
2023-09-07T00:33:21.705Z,98240.97
2023-09-07T00:35:48.863Z,98244.09
2023-09-07T00:38:16.034Z,98236.44
2023-09-07T00:40:46.428Z,98240.28
2023-09-07T00:43:13.922Z,98240.31
2023-09-07T00:45:41.641Z,98237.84
2023-09-07T00:48:09.443Z,98232.91
2023-09-07T00:50:36.803Z,98239.75
2023-09-07T00:53:04.540Z,98240.81
2023-09-07T00:55:34.498Z,98238.56
2023-09-07T00:58:04.279Z,98235.34
2023-09-07T01:00:32.727Z,98237.63
2023-09-07T01:03:00.008Z,98237.31
2023-09-07T01:05:35.216Z,98233.47
2023-09-07T01:08:13.048Z,98227.56
2023-09-07T01:10:41.045Z,98234.03
2023-09-07T01:13:08.410Z,98231.59
2023-09-07T01:15:35.672Z,98230.22
2023-09-07T01:18:18.007Z,98236.38
2023-09-07T01:20:52.105Z,98226.97
2023-09-07T01:23:19.474Z,98221.28
2023-09-07T01:25:46.958Z,98225.00
2023-09-07T01:28:16.274Z,98222.56
2023-09-07T01:30:43.501Z,98230.78
2023-09-07T01:33:10.651Z,98229.53
2023-09-07T01:35:39.835Z,98221.09
2023-09-07T01:38:07.169Z,98229.59
2023-09-07T01:40:34.418Z,98228.44
2023-09-07T01:43:01.549Z,98218.47
2023-09-07T01:45:28.739Z,98217.66
2023-09-07T01:47:55.990Z,98218.75
2023-09-07T01:50:23.484Z,98214.72
2023-09-07T01:52:50.669Z,98218.09
2023-09-07T01:55:18.273Z,98210.59
2023-09-07T01:57:45.733Z,98212.03
2023-09-07T02:00:13.806Z,98201.13
2023-09-07T02:02:40.927Z,98204.50
2023-09-07T02:05:09.047Z,98202.47
2023-09-07T02:07:36.316Z,98199.19
2023-09-07T02:10:06.576Z,98204.38
2023-09-07T02:12:33.766Z,98213.13
2023-09-07T02:15:03.771Z,98197.88
2023-09-07T02:17:31.205Z,98204.06
2023-09-07T02:19:58.604Z,98211.00
2023-09-07T02:22:27.043Z,98208.97
2023-09-07T02:24:54.329Z,98211.03
2023-09-07T02:27:21.639Z,98201.69
2023-09-07T02:29:48.913Z,98214.88
2023-09-07T02:32:17.860Z,98205.56
2023-09-07T02:34:45.046Z,98212.88
2023-09-07T02:37:12.740Z,98211.31
2023-09-07T02:39:40.957Z,98212.81
2023-09-07T02:42:08.161Z,98204.88
2023-09-07T02:44:35.345Z,98205.63
2023-09-07T02:47:02.911Z,98206.25
2023-09-07T02:49:30.145Z,98203.38
2023-09-07T02:51:57.592Z,98205.44
2023-09-07T02:54:25.347Z,98217.13
2023-09-07T02:56:52.639Z,98211.97
2023-09-07T02:59:21.061Z,98212.13
2023-09-07T03:01:48.746Z,98214.28
2023-09-07T03:04:15.960Z,98214.31
2023-09-07T03:06:43.574Z,98205.41
2023-09-07T03:09:10.779Z,98210.25
2023-09-07T03:11:39.799Z,98209.78
2023-09-07T03:14:07.314Z,98216.09
2023-09-07T03:16:34.815Z,98217.59
2023-09-07T03:19:02.235Z,98215.03
2023-09-07T03:21:30.510Z,98212.13
2023-09-07T03:23:58.940Z,98220.09
2023-09-07T03:26:26.750Z,98209.91
2023-09-07T03:28:54.382Z,98206.53
2023-09-07T03:31:21.789Z,98209.25
2023-09-07T03:33:50.534Z,98219.31
2023-09-07T03:36:17.767Z,98217.44
2023-09-07T03:38:45.065Z,98217.78
2023-09-07T03:41:13.851Z,98216.72
2023-09-07T03:43:41.045Z,98225.13
2023-09-07T03:46:08.800Z,98223.16
2023-09-07T03:48:40.737Z,98227.19
2023-09-07T03:51:09.140Z,98220.56
2023-09-07T03:53:36.530Z,98224.78
2023-09-07T03:56:05.102Z,98216.03
2023-09-07T03:58:33.021Z,98226.16
2023-09-07T04:01:01.012Z,98224.84
2023-09-07T04:03:29.703Z,98231.25
2023-09-07T04:05:57.721Z,98227.44
2023-09-07T04:08:25.029Z,98235.22
2023-09-07T04:10:52.137Z,98217.38
2023-09-07T04:13:19.352Z,98222.63
2023-09-07T04:15:46.659Z,98225.88
2023-09-07T04:18:17.463Z,98229.19
2023-09-07T04:20:45.368Z,98233.34
2023-09-07T04:23:13.885Z,98238.88
2023-09-07T04:25:41.177Z,98223.75
2023-09-07T04:28:09.870Z,98226.81
2023-09-07T04:30:41.449Z,98232.94
2023-09-07T04:33:08.788Z,98233.31
2023-09-07T04:35:37.908Z,98229.84
2023-09-07T04:38:05.153Z,98241.78
2023-09-07T04:40:33.132Z,98237.75
2023-09-07T04:43:00.899Z,98239.84
2023-09-07T04:45:28.068Z,98241.81
2023-09-07T04:47:55.299Z,98250.31
2023-09-07T04:50:22.644Z,98248.38
2023-09-07T04:52:49.941Z,98246.59
2023-09-07T04:55:17.490Z,98247.38
2023-09-07T04:57:44.870Z,98252.94
2023-09-07T05:00:12.502Z,98254.84
2023-09-07T05:02:43.177Z,98253.25
2023-09-07T05:05:10.856Z,98246.84
2023-09-07T05:07:38.332Z,98252.78
2023-09-07T05:10:07.796Z,98251.09
2023-09-07T05:12:35.147Z,98257.84
2023-09-07T05:15:02.416Z,98259.66
2023-09-07T05:17:29.879Z,98247.22
2023-09-07T05:19:57.027Z,98256.81
2023-09-07T05:22:24.243Z,98252.94
2023-09-07T05:24:51.536Z,98257.94
2023-09-07T05:27:18.839Z,98256.16
2023-09-07T05:29:46.264Z,98258.44
2023-09-07T05:32:14.107Z,98266.31
2023-09-07T05:34:43.968Z,98266.47
2023-09-07T05:37:11.236Z,98273.66
2023-09-07T05:39:39.788Z,98272.66
2023-09-07T05:42:07.016Z,98273.13
2023-09-07T05:44:34.222Z,98273.94
2023-09-07T05:47:03.213Z,98273.78
2023-09-07T05:49:30.761Z,98284.22
2023-09-07T05:51:58.167Z,98279.31
2023-09-07T05:54:26.143Z,98281.22
2023-09-07T05:56:53.734Z,98280.31
2023-09-07T05:59:21.080Z,98284.06
2023-09-07T06:01:48.251Z,98284.06
2023-09-07T06:04:15.613Z,98277.84
2023-09-07T06:06:43.123Z,98280.78
2023-09-07T06:09:10.501Z,98286.94
2023-09-07T06:11:37.758Z,98291.84
2023-09-07T06:14:06.731Z,98290.03
2023-09-07T06:16:33.913Z,98288.41
2023-09-07T06:19:01.229Z,98293.09
2023-09-07T06:21:28.509Z,98289.34
2023-09-07T06:23:55.682Z,98295.50
2023-09-07T06:26:23.028Z,98293.59
2023-09-07T06:28:50.763Z,98298.94
2023-09-07T06:31:19.868Z,98294.97
2023-09-07T06:33:47.842Z,98294.00
2023-09-07T06:36:15.160Z,98296.75
2023-09-07T06:38:42.429Z,98297.34
2023-09-07T06:41:10.592Z,98300.91
2023-09-07T06:43:38.374Z,98296.47
2023-09-07T06:46:09.783Z,98301.19
2023-09-07T06:48:37.246Z,98292.34
2023-09-07T06:51:05.984Z,98299.47
2023-09-07T06:53:54.584Z,98296.22
2023-09-07T06:56:22.006Z,98311.00
2023-09-07T06:58:49.766Z,98299.81
2023-09-07T07:01:16.977Z,98300.03
2023-09-07T07:03:44.921Z,98303.00
2023-09-07T07:06:12.410Z,98305.31
2023-09-07T07:08:39.922Z,98307.22
2023-09-07T07:11:07.142Z,98304.34
2023-09-07T07:13:35.594Z,98307.66
2023-09-07T07:16:02.870Z,98306.72
2023-09-07T07:18:30.354Z,98310.16
2023-09-07T07:20:58.908Z,98302.75
2023-09-07T07:23:26.132Z,98309.97
2023-09-07T07:25:53.821Z,98310.91
2023-09-07T07:28:23.507Z,98304.78
2023-09-07T07:30:53.379Z,98312.78
2023-09-07T07:33:21.620Z,98303.84
2023-09-07T07:35:49.581Z,98313.97
2023-09-07T07:38:16.963Z,98319.06
2023-09-07T07:40:46.201Z,98314.63
2023-09-07T07:43:18.271Z,98322.03
2023-09-07T07:45:45.477Z,98313.19
2023-09-07T07:48:12.854Z,98318.75
2023-09-07T07:50:42.540Z,98317.50
2023-09-07T07:53:12.950Z,98314.09
2023-09-07T07:55:42.017Z,98314.66
2023-09-07T07:58:12.910Z,98316.34
2023-09-07T08:00:49.067Z,98314.88
2023-09-07T08:03:21.140Z,98307.19
2023-09-07T08:05:49.050Z,98303.97
2023-09-07T08:08:16.409Z,98298.47
2023-09-07T08:10:46.788Z,98300.56
2023-09-07T08:13:14.972Z,98304.59
2023-09-07T08:15:43.877Z,98302.28
2023-09-07T08:18:11.965Z,98299.44
2023-09-07T08:20:41.562Z,98307.28
2023-09-07T08:23:11.562Z,98297.88
2023-09-07T08:25:40.668Z,98305.72
2023-09-07T08:28:08.287Z,98302.13
2023-09-07T08:30:35.990Z,98300.28
2023-09-07T08:33:03.572Z,98295.22
2023-09-07T08:35:31.574Z,98291.50
2023-09-07T08:37:59.751Z,98295.56
2023-09-07T08:40:28.521Z,98295.63
2023-09-07T08:42:55.848Z,98291.56
2023-09-07T08:45:26.987Z,98301.69
2023-09-07T08:47:55.980Z,98301.88
2023-09-07T08:50:24.909Z,98295.19
2023-09-07T08:52:54.033Z,98295.69
2023-09-07T08:55:22.598Z,98297.09
2023-09-07T08:57:49.722Z,98302.25
2023-09-07T09:00:17.710Z,98301.16
2023-09-07T09:02:56.127Z,98299.16
2023-09-07T09:05:25.996Z,98286.91
2023-09-07T09:08:02.465Z,98291.34
2023-09-07T09:10:29.598Z,98291.69
2023-09-07T09:12:56.942Z,98292.81
2023-09-07T09:15:24.082Z,98296.63
2023-09-07T09:17:51.388Z,98293.53
2023-09-07T09:20:26.206Z,98290.22
2023-09-07T09:22:54.753Z,98283.84
2023-09-07T09:25:22.435Z,98288.63
2023-09-07T09:27:49.477Z,98292.22
2023-09-07T09:30:17.445Z,98290.41
2023-09-07T09:32:44.831Z,98287.34
2023-09-07T09:35:12.003Z,98293.59
2023-09-07T09:37:46.434Z,98296.44
2023-09-07T09:40:14.904Z,98295.00
2023-09-07T09:42:44.512Z,98294.25
2023-09-07T09:45:13.083Z,98294.72
2023-09-07T09:47:41.913Z,98291.19
2023-09-07T09:50:11.779Z,98283.63
2023-09-07T09:52:39.925Z,98273.06
2023-09-07T09:55:09.295Z,98282.00
2023-09-07T09:57:37.160Z,98279.28
2023-09-07T10:00:30.708Z,98279.44
2023-09-07T10:03:03.517Z,98279.56
2023-09-07T10:05:32.326Z,98273.44
2023-09-07T10:08:06.637Z,98275.66
2023-09-07T10:10:37.975Z,98273.03
2023-09-07T10:13:05.991Z,98273.25
2023-09-07T10:15:40.228Z,98269.84
2023-09-07T10:18:15.064Z,98272.09
2023-09-07T10:20:51.136Z,98271.47
2023-09-07T10:23:18.396Z,98276.78
2023-09-07T10:25:50.347Z,98271.53
2023-09-07T10:28:24.416Z,98260.47
2023-09-07T10:31:06.401Z,98264.84
2023-09-07T10:33:35.570Z,98265.88
2023-09-07T10:36:04.467Z,98260.59
2023-09-07T10:38:37.472Z,98263.09
2023-09-07T10:41:05.868Z,98265.19
2023-09-07T10:43:35.054Z,98259.56
2023-09-07T10:46:02.872Z,98258.75
2023-09-07T10:48:34.518Z,98251.09
2023-09-07T10:51:01.920Z,98254.84
2023-09-07T10:53:32.807Z,98255.38
2023-09-07T10:56:04.749Z,98246.63
2023-09-07T10:58:36.821Z,98238.72
2023-09-07T11:01:04.737Z,98239.22
2023-09-07T11:03:32.139Z,98237.09
2023-09-07T11:06:04.495Z,98238.72
2023-09-07T11:08:31.685Z,98244.38
2023-09-07T11:10:58.859Z,98234.34
2023-09-07T11:13:26.273Z,98242.91
2023-09-07T11:15:57.501Z,98234.00
2023-09-07T11:18:26.053Z,98240.19
2023-09-07T11:20:54.285Z,98236.16
2023-09-07T11:23:22.598Z,98232.44
2023-09-07T11:25:52.744Z,98225.59
2023-09-07T11:28:20.933Z,98221.72
2023-09-07T11:30:55.970Z,98219.22
2023-09-07T11:33:23.947Z,98221.63
2023-09-07T11:35:51.905Z,98218.91
2023-09-07T11:38:19.569Z,98217.34
2023-09-07T11:40:46.992Z,98213.41
2023-09-07T11:43:15.691Z,98214.22
2023-09-07T11:45:43.938Z,98212.19
2023-09-07T11:48:12.314Z,98205.06
2023-09-07T11:50:41.054Z,98209.44
2023-09-07T11:53:08.822Z,98207.81
2023-09-07T11:55:36.672Z,98206.63
2023-09-07T11:58:05.995Z,98196.16
2023-09-07T12:00:33.299Z,98202.66
2023-09-07T12:03:00.615Z,98197.47
2023-09-07T12:05:27.872Z,98201.50
2023-09-07T12:07:55.531Z,98194.25
2023-09-07T12:10:22.933Z,98199.09
2023-09-07T12:12:50.071Z,98193.47
2023-09-07T12:15:17.127Z,98192.66
2023-09-07T12:17:44.418Z,98191.41
2023-09-07T12:20:12.136Z,98188.59
2023-09-07T12:22:39.521Z,98190.22
2023-09-07T12:25:15.370Z,98182.97
2023-09-07T12:30:23.134Z,98188.59
2023-09-07T12:32:51.248Z,98178.09
2023-09-07T12:35:18.489Z,98184.16
2023-09-07T12:37:45.504Z,98177.31
2023-09-07T12:40:14.067Z,98179.34
2023-09-07T12:42:44.635Z,98170.84
2023-09-07T12:45:13.383Z,98174.50
2023-09-07T12:47:41.133Z,98165.97
2023-09-07T12:50:08.753Z,98167.97
2023-09-07T12:52:37.403Z,98161.91
2023-09-07T12:55:05.761Z,98153.84
2023-09-07T12:57:33.030Z,98153.06
2023-09-07T13:00:00.630Z,98158.59
2023-09-07T13:02:30.020Z,98154.59
2023-09-07T13:04:57.102Z,98151.72
2023-09-07T13:07:24.200Z,98156.94
2023-09-07T13:09:51.308Z,98147.63
2023-09-07T13:12:18.355Z,98153.63
2023-09-07T13:14:45.443Z,98140.81
2023-09-07T13:17:17.667Z,98143.28
2023-09-07T13:19:45.170Z,98137.97
2023-09-07T13:22:12.336Z,98142.38
2023-09-07T13:24:39.484Z,98135.53
2023-09-07T13:27:07.164Z,98132.66
2023-09-07T13:29:34.197Z,98139.56
2023-09-07T13:32:01.504Z,98135.88
2023-09-07T13:34:29.307Z,98133.34
2023-09-07T13:36:56.985Z,98134.94
2023-09-07T13:39:24.787Z,98123.53
2023-09-07T13:41:51.968Z,98130.13
2023-09-07T13:44:19.061Z,98131.44
2023-09-07T13:46:46.190Z,98112.50
2023-09-07T13:49:13.647Z,98122.50
2023-09-07T13:51:44.189Z,98108.91
2023-09-07T13:54:11.442Z,98109.63
2023-09-07T13:56:38.671Z,98103.19
2023-09-07T13:59:05.997Z,98100.88
2023-09-07T14:01:33.314Z,98106.59
2023-09-07T14:04:01.164Z,98099.63
2023-09-07T14:06:28.380Z,98104.00
2023-09-07T14:08:55.668Z,98102.31
2023-09-07T14:11:25.761Z,98096.88
2023-09-07T14:13:53.135Z,98102.97
2023-09-07T14:16:21.030Z,98104.63
2023-09-07T14:18:48.582Z,98094.50
2023-09-07T14:21:16.265Z,98096.56
2023-09-07T14:23:45.326Z,98098.13
2023-09-07T14:26:12.445Z,98102.09
2023-09-07T14:28:40.319Z,98098.34
2023-09-07T14:31:10.358Z,98094.31
2023-09-07T14:33:44.318Z,98102.91
2023-09-07T14:36:11.399Z,98107.22
2023-09-07T14:38:44.417Z,98103.84
2023-09-07T14:41:17.058Z,98101.19
2023-09-07T14:43:44.592Z,98099.38
2023-09-07T14:46:11.680Z,98098.53
2023-09-07T14:48:38.804Z,98104.41
2023-09-07T14:51:05.832Z,98095.06
2023-09-07T14:53:33.224Z,98101.47
2023-09-07T14:56:00.477Z,98105.53
2023-09-07T14:58:27.707Z,98107.34
2023-09-07T15:00:54.722Z,98103.50
2023-09-07T15:03:21.798Z,98098.56
2023-09-07T15:05:49.159Z,98103.59
2023-09-07T15:08:16.523Z,98106.13
2023-09-07T15:10:43.773Z,98114.44
2023-09-07T15:13:11.124Z,98104.41
2023-09-07T15:15:40.607Z,98101.44
2023-09-07T15:18:08.493Z,98093.72
2023-09-07T15:20:36.733Z,98093.75
2023-09-07T15:23:04.426Z,98094.97
2023-09-07T15:25:31.691Z,98090.03
2023-09-07T15:27:58.729Z,98102.59
2023-09-07T15:30:26.175Z,98100.53
2023-09-07T15:32:53.504Z,98103.25
2023-09-07T15:35:20.953Z,98106.75
2023-09-07T15:37:48.184Z,98094.72
2023-09-07T15:40:15.491Z,98102.78
2023-09-07T15:42:42.903Z,98100.53
2023-09-07T15:45:10.485Z,98098.66
2023-09-07T15:47:37.688Z,98097.97
2023-09-07T15:50:05.539Z,98100.88
2023-09-07T15:52:33.473Z,98103.50
2023-09-07T15:55:00.523Z,98103.34
2023-09-07T15:57:27.724Z,98108.03
2023-09-07T15:59:57.215Z,98109.34
2023-09-07T16:02:24.475Z,98111.28
2023-09-07T16:04:51.660Z,98111.78
2023-09-07T16:07:18.740Z,98112.44
2023-09-07T16:09:45.905Z,98111.66
2023-09-07T16:12:13.670Z,98111.34
2023-09-07T16:14:40.748Z,98113.06
2023-09-07T16:17:09.991Z,98112.44
2023-09-07T16:19:37.113Z,98107.66
2023-09-07T16:22:07.361Z,98108.47
2023-09-07T16:24:34.667Z,98099.63
2023-09-07T16:27:01.985Z,98108.31
2023-09-07T16:29:29.124Z,98106.38
2023-09-07T16:31:56.235Z,98105.59
2023-09-07T16:34:23.717Z,98102.47
2023-09-07T16:36:50.760Z,98106.72
2023-09-07T16:39:17.866Z,98102.25
2023-09-07T16:41:44.996Z,98109.97
2023-09-07T16:44:13.030Z,98112.56
2023-09-07T16:46:40.392Z,98118.41
2023-09-07T16:49:07.555Z,98114.13
2023-09-07T16:51:34.711Z,98119.59
2023-09-07T16:54:01.847Z,98120.06
2023-09-07T16:56:29.782Z,98113.13
2023-09-07T17:01:27.270Z,98124.25
2023-09-07T17:03:54.570Z,98113.78
2023-09-07T17:06:21.766Z,98124.81
2023-09-07T17:08:48.835Z,98124.00
2023-09-07T17:11:15.852Z,98116.78
2023-09-07T17:13:51.961Z,98118.81
2023-09-07T17:16:27.268Z,98118.03
2023-09-07T17:18:54.293Z,98122.88
2023-09-07T17:21:21.307Z,98125.31
2023-09-07T17:23:48.484Z,98126.13
2023-09-07T17:26:15.719Z,98128.97
2023-09-07T17:28:44.418Z,98130.53
2023-09-07T17:31:17.437Z,98130.50
2023-09-07T17:33:47.455Z,98128.91
2023-09-07T17:36:19.371Z,98133.28
2023-09-07T17:38:47.869Z,98140.16
2023-09-07T17:41:15.000Z,98135.31
2023-09-07T17:43:45.599Z,98136.75
2023-09-07T17:46:12.671Z,98135.16
2023-09-07T17:48:40.577Z,98139.13
2023-09-07T17:51:10.391Z,98138.28
2023-09-07T17:53:37.400Z,98140.72
2023-09-07T17:56:12.207Z,98147.59
2023-09-07T17:58:40.977Z,98143.13
2023-09-07T18:01:12.969Z,98147.16
2023-09-07T18:03:40.779Z,98145.59
2023-09-07T18:06:11.090Z,98140.78
2023-09-07T18:08:38.826Z,98149.66
2023-09-07T18:11:07.278Z,98150.84
2023-09-07T18:13:34.581Z,98163.44
2023-09-07T18:16:01.756Z,98161.69
2023-09-07T18:18:29.030Z,98155.63
2023-09-07T18:20:56.260Z,98157.25
2023-09-07T18:23:25.520Z,98154.88
2023-09-07T18:25:52.916Z,98153.25
2023-09-07T18:28:19.969Z,98161.31
2023-09-07T18:30:47.279Z,98165.66
2023-09-07T18:33:14.386Z,98160.84
2023-09-07T18:35:41.404Z,98160.06
2023-09-07T18:38:08.600Z,98163.63
2023-09-07T18:40:35.797Z,98168.03
2023-09-07T18:43:03.106Z,98170.84
2023-09-07T18:45:30.186Z,98176.06
2023-09-07T18:47:57.396Z,98168.47
2023-09-07T18:50:24.915Z,98171.69
2023-09-07T18:52:52.417Z,98169.56
2023-09-07T18:55:19.925Z,98170.72
2023-09-07T18:57:48.339Z,98162.38
2023-09-07T19:00:16.366Z,98162.66
2023-09-07T19:02:44.313Z,98165.91
2023-09-07T19:05:11.620Z,98172.75
2023-09-07T19:07:40.088Z,98168.34
2023-09-07T19:10:08.228Z,98168.66
2023-09-07T19:12:38.854Z,98167.06
2023-09-07T19:15:06.975Z,98159.03
2023-09-07T19:17:34.152Z,98174.34
2023-09-07T19:20:01.244Z,98167.03
2023-09-07T19:22:28.301Z,98163.75
2023-09-07T19:24:55.421Z,98160.53
2023-09-07T19:27:24.245Z,98162.56
2023-09-07T19:29:51.993Z,98154.50
2023-09-07T19:32:20.444Z,98150.00
2023-09-07T19:34:47.866Z,98148.78
2023-09-07T19:37:15.068Z,98148.31
2023-09-07T19:39:42.209Z,98162.41
2023-09-07T19:42:09.436Z,98149.56
2023-09-07T19:44:36.701Z,98154.41
2023-09-07T19:47:03.983Z,98158.81
2023-09-07T19:49:31.136Z,98152.59
2023-09-07T19:51:58.220Z,98159.13
2023-09-07T19:54:25.349Z,98155.59
2023-09-07T19:56:52.471Z,98141.13
2023-09-07T19:59:19.506Z,98162.78
2023-09-07T20:02:00.752Z,98155.94
2023-09-07T20:04:29.817Z,98163.66
2023-09-07T20:06:56.934Z,98158.81
2023-09-07T20:09:25.479Z,98159.22
2023-09-07T20:11:53.923Z,98162.09
2023-09-07T20:14:23.554Z,98161.28
2023-09-07T20:16:51.264Z,98154.41
2023-09-07T20:19:18.535Z,98154.41
2023-09-07T20:21:45.588Z,98165.66
2023-09-07T20:24:12.626Z,98158.75
2023-09-07T20:26:39.713Z,98155.44
2023-09-07T20:29:07.432Z,98153.75
2023-09-07T20:31:34.697Z,98154.59
2023-09-07T20:34:01.769Z,98155.00
2023-09-07T20:36:28.856Z,98150.53
2023-09-07T20:38:56.106Z,98151.56
2023-09-07T20:41:23.521Z,98147.69
2023-09-07T20:43:50.622Z,98144.03
2023-09-07T20:46:17.944Z,98142.38
2023-09-07T20:48:45.124Z,98144.41
2023-09-07T20:51:12.236Z,98141.47
2023-09-07T20:53:39.435Z,98141.88
2023-09-07T20:56:06.501Z,98133.41
2023-09-07T20:58:34.912Z,98133.41
2023-09-07T21:01:03.919Z,98143.47
2023-09-07T21:03:31.870Z,98142.44
2023-09-07T21:05:59.253Z,98140.56
2023-09-07T21:08:26.373Z,98139.41
2023-09-07T21:10:54.713Z,98145.00
2023-09-07T21:13:21.823Z,98137.41
2023-09-07T21:15:49.009Z,98139.84
2023-09-07T21:18:16.276Z,98137.38
2023-09-07T21:20:43.686Z,98144.63
2023-09-07T21:23:13.546Z,98135.41
2023-09-07T21:25:40.802Z,98132.47
2023-09-07T21:28:07.929Z,98134.94
2023-09-07T21:30:35.127Z,98124.03
2023-09-07T21:33:02.535Z,98133.66
2023-09-07T21:35:29.604Z,98130.44
2023-09-07T21:37:56.798Z,98129.25
2023-09-07T21:40:24.061Z,98125.34
2023-09-07T21:42:51.149Z,98125.84
2023-09-07T21:45:18.459Z,98123.53
2023-09-07T21:47:45.585Z,98114.34
2023-09-07T21:50:12.684Z,98122.25
2023-09-07T21:52:39.875Z,98125.88
2023-09-07T21:55:07.281Z,98117.13
2023-09-07T21:57:34.350Z,98112.22
2023-09-07T22:00:01.480Z,98116.88
2023-09-07T22:02:39.324Z,98114.38
2023-09-07T22:05:06.987Z,98114.16
2023-09-07T22:07:34.522Z,98113.25
2023-09-07T22:10:01.671Z,98117.16
2023-09-07T22:12:28.769Z,98099.66
2023-09-07T22:14:56.206Z,98102.72
2023-09-07T22:17:23.507Z,98110.41
2023-09-07T22:19:51.222Z,98106.28
2023-09-07T22:22:18.287Z,98108.19
2023-09-07T22:24:45.602Z,98106.88
2023-09-07T22:27:12.693Z,98104.69
2023-09-07T22:29:40.155Z,98106.28
2023-09-07T22:32:07.252Z,98106.81
2023-09-07T22:34:34.392Z,98110.63
2023-09-07T22:37:01.832Z,98105.88
2023-09-07T22:39:29.101Z,98102.63
2023-09-07T22:41:56.398Z,98101.44
2023-09-07T22:44:23.536Z,98109.06
2023-09-07T22:46:50.630Z,98103.97
2023-09-07T22:49:17.745Z,98103.09
2023-09-07T22:51:44.781Z,98114.59
2023-09-07T22:54:12.000Z,98104.03
2023-09-07T22:56:39.706Z,98106.41
2023-09-07T22:59:06.735Z,98111.56
2023-09-07T23:01:33.850Z,98109.09
2023-09-07T23:04:01.113Z,98113.44
2023-09-07T23:06:28.554Z,98122.38
2023-09-07T23:08:56.059Z,98118.22
2023-09-07T23:11:23.210Z,98117.53
2023-09-07T23:13:50.451Z,98113.16
2023-09-07T23:16:17.555Z,98116.50
2023-09-07T23:18:44.748Z,98123.91
2023-09-07T23:21:12.325Z,98111.81
2023-09-07T23:23:40.268Z,98117.31
2023-09-07T23:26:08.983Z,98118.31
2023-09-07T23:28:38.615Z,98120.88
2023-09-07T23:31:05.679Z,98125.44
2023-09-07T23:33:32.738Z,98121.19
2023-09-07T23:35:59.857Z,98130.06
2023-09-07T23:38:26.892Z,98122.28
2023-09-07T23:40:53.967Z,98121.84
2023-09-07T23:43:21.337Z,98120.91
2023-09-07T23:45:48.486Z,98131.28
2023-09-07T23:48:15.581Z,98133.41
2023-09-07T23:50:42.580Z,98128.75
2023-09-07T23:53:09.601Z,98133.34
2023-09-07T23:55:36.616Z,98130.53
2023-09-07T23:58:03.709Z,98132.09
